»·PEaware :: N53402 KSBP-KSBP

N53402 :: KSBP-KSBP

FLIGHT INFORMATION

Flight Status: Arrived
Operator: Privately registered:
United States
More flights under this callsign
Pilot: Chris C. (24581)
Aircraft: SOCATA TBM-850
(TBM8)
More flights by this aircraft type
Origin: KSBP San Luis Co Regl
United States
Destination: KSBP San Luis Co Regl
United States
More flights between these airports :: More routes between these airports
Route: +
File this flight plan on PilotEdge
Remarks:
Altitude:
(Current/Filed)
0ft
Speed:
(Current/Filed)
0kts
Departed: 06-Feb-20 12:59 PM
Arrived: 06-Feb-20 02:06 PM
Distance/Time
Traveled:
0nm/1:07
Distance/Time
To Go:
Arrived

Flight Plot

Page will automatically refresh every two minutes.


Map Options




Map Legend


Flown Route
Filed Route
Departure Airport
Arrival Airport
Navaid (VOR, NDB)
Fix

Horizontal Profiles

Position Reports

Time Latitude Longitude Heading Altitude Ground
Speed
06-Feb-20 12:57 35.232941 -120.633283 284 216ft 8kts
06-Feb-20 12:58 35.242370 -120.650048 300 303ft 106kts
06-Feb-20 12:59 35.258225 -120.677826 303 1673ft 114kts
06-Feb-20 13:00 35.280103 -120.719805 303 2767ft 172kts
06-Feb-20 13:01 35.307618 -120.771534 303 4234ft 179kts
06-Feb-20 13:02 35.349343 -120.809230 333 4980ft 206kts
06-Feb-20 13:03 35.405057 -120.839504 333 5163ft 222kts
06-Feb-20 13:04 35.461600 -120.869636 333 5662ft 221kts
06-Feb-20 13:05 35.518272 -120.898967 333 6162ft 222kts
06-Feb-20 13:06 35.577915 -120.913871 24 6495ft 246kts
06-Feb-20 13:07 35.592135 -120.851201 100 6586ft 266kts
06-Feb-20 13:08 35.576469 -120.761643 103 6500ft 268kts
06-Feb-20 13:09 35.560042 -120.672256 103 6499ft 267kts
06-Feb-20 13:10 35.536057 -120.590750 113 6121ft 244kts
06-Feb-20 13:11 35.502650 -120.518135 122 4629ft 246kts
06-Feb-20 13:12 35.470698 -120.448792 115 3478ft 205kts
06-Feb-20 13:13 35.462958 -120.390727 93 3489ft 150kts
06-Feb-20 13:14 35.463837 -120.347644 24 3482ft 107kts
06-Feb-20 13:15 35.484134 -120.330779 109 3313ft 107kts
06-Feb-20 13:16 35.488904 -120.300975 49 3725ft 143kts
06-Feb-20 13:17 35.508010 -120.236692 75 3501ft 222kts
06-Feb-20 13:18 35.530843 -120.174835 37 3500ft 189kts
06-Feb-20 13:19 35.576813 -120.151699 359 3503ft 175kts
06-Feb-20 13:20 35.614462 -120.181756 303 3501ft 169kts
06-Feb-20 13:21 35.629725 -120.236355 310 3504ft 169kts
06-Feb-20 13:22 35.646801 -120.287752 283 3501ft 164kts
06-Feb-20 13:23 35.656742 -120.343188 287 3501ft 166kts
06-Feb-20 13:24 35.666939 -120.396878 283 3079ft 193kts
06-Feb-20 13:25 35.671098 -120.421057 283 3097ft 183kts
06-Feb-20 13:26 35.679877 -120.468944 284 3022ft 176kts
06-Feb-20 13:27 35.690471 -120.530103 283 2543ft 187kts
06-Feb-20 13:28 35.699490 -120.591011 266 2500ft 176kts
06-Feb-20 13:29 35.675943 -120.643097 247 2505ft 174kts
06-Feb-20 13:30 35.655433 -120.696776 252 2500ft 173kts
06-Feb-20 13:31 35.623672 -120.740978 222 2500ft 176kts
06-Feb-20 13:32 35.588745 -120.783286 231 2500ft 175kts
06-Feb-20 13:33 35.553289 -120.824431 218 2499ft 177kts
06-Feb-20 13:34 35.509505 -120.852367 215 2501ft 177kts
06-Feb-20 13:35 35.469106 -120.898266 227 2414ft 228kts
06-Feb-20 13:36 35.418800 -120.953364 230 2016ft 246kts
06-Feb-20 13:37 35.394472 -121.025937 252 2656ft 214kts
06-Feb-20 13:38 35.345323 -121.071416 207 1939ft 261kts
06-Feb-20 13:39 35.289050 -121.119802 225 1888ft 189kts
06-Feb-20 13:40 35.255620 -121.161403 253 2313ft 111kts
06-Feb-20 13:41 35.232927 -121.189278 179 1974ft 164kts
06-Feb-20 13:42 35.196547 -121.154470 118 818ft 203kts
06-Feb-20 13:43 35.158631 -121.129927 226 163ft 195kts
06-Feb-20 13:44 35.116247 -121.118042 124 1173ft 199kts
06-Feb-20 13:45 35.084787 -121.060240 122 2020ft 213kts
06-Feb-20 13:46 35.050867 -120.997372 122 2000ft 226kts
06-Feb-20 13:47 35.016182 -120.933046 122 2000ft 228kts
06-Feb-20 13:48 34.981285 -120.868344 122 2000ft 228kts
06-Feb-20 13:49 34.946328 -120.803558 122 2000ft 228kts
06-Feb-20 13:50 34.911397 -120.738848 122 1999ft 228kts
06-Feb-20 13:51 34.892665 -120.670434 57 1999ft 222kts
06-Feb-20 13:52 34.935596 -120.627596 33 1993ft 177kts
06-Feb-20 13:53 34.972811 -120.595396 33 1995ft 153kts
06-Feb-20 13:54 35.004140 -120.567944 33 1987ft 126kts
06-Feb-20 13:55 35.029417 -120.545354 33 2177ft 94kts
06-Feb-20 13:56 35.057000 -120.520379 33 2513ft 154kts
06-Feb-20 13:57 35.095490 -120.486379 33 2502ft 180kts
06-Feb-20 13:58 35.137468 -120.451729 11 2489ft 178kts
06-Feb-20 13:59 35.146713 -120.478347 246 3214ft 79kts
06-Feb-20 14:00 35.162869 -120.511064 318 1990ft 133kts
06-Feb-20 14:01 35.183823 -120.547149 303 1054ft 125kts
06-Feb-20 14:02 35.202846 -120.580495 308 998ft 116kts
06-Feb-20 14:03 35.221195 -120.612127 303 766ft 105kts
06-Feb-20 14:04 35.235164 -120.637101 306 218ft 70kts
06-Feb-20 14:05 35.241306 -120.646813 61 216ft 7kts
06-Feb-20 14:06 35.241355 -120.646703 61 216ft 0kts
06-Feb-20 14:07 35.240668 -120.644722 73 216ft 4kts
06-Feb-20 14:08 35.240660 -120.644274 112 216ft 0kts
06-Feb-20 14:09 35.240660 -120.644274 112 216ft 0kts
06-Feb-20 14:11 35.240660 -120.644274 112 216ft 0kts
06-Feb-20 14:12 35.240660 -120.644274 112 215ft 0kts
06-Feb-20 14:13 35.240660 -120.644274 112 215ft 0kts
06-Feb-20 14:14 35.240660 -120.644274 112 215ft 0kts
06-Feb-20 14:15 35.240660 -120.644274 112 215ft 0kts

Navigation Log

Ident Type
Flight plan parsing failed, navigation log unavailable